createdAt,value
2018-07-02T00:00:30.181Z,99872.88
2018-07-02T00:02:05.869Z,99870.13
2018-07-02T00:03:41.443Z,99872.55
2018-07-02T00:05:17.041Z,99871.70
2018-07-02T00:07:03.949Z,99876.52
2018-07-02T00:08:39.767Z,99868.41
2018-07-02T00:10:15.384Z,99875.80
2018-07-02T00:11:51.163Z,99875.67
2018-07-02T00:13:27.863Z,99868.70
2018-07-02T00:15:03.482Z,99856.97
2018-07-02T00:16:39.053Z,99870.02
2018-07-02T00:18:14.653Z,99865.30
2018-07-02T00:19:50.219Z,99867.85
2018-07-02T00:21:25.786Z,99865.89
2018-07-02T00:23:01.395Z,99860.28
2018-07-02T00:24:36.987Z,99858.14
2018-07-02T00:26:12.581Z,99853.16
2018-07-02T00:27:48.123Z,99853.77
2018-07-02T00:29:23.995Z,99858.03
2018-07-02T00:30:59.573Z,99858.67
2018-07-02T00:32:35.173Z,99855.78
2018-07-02T00:34:10.753Z,99855.06
2018-07-02T00:35:46.320Z,99856.05
2018-07-02T00:37:21.906Z,99856.37
2018-07-02T00:38:57.494Z,99855.53
2018-07-02T00:40:33.095Z,99852.58
2018-07-02T00:42:08.718Z,99853.48
2018-07-02T00:43:44.421Z,99851.91
2018-07-02T00:45:20.070Z,99853.78
2018-07-02T00:46:55.756Z,99853.25
2018-07-02T00:48:31.389Z,99848.05
2018-07-02T00:50:07.068Z,99847.97
2018-07-02T00:51:42.715Z,99853.31
2018-07-02T00:53:18.339Z,99856.20
2018-07-02T00:54:53.923Z,99852.84
2018-07-02T00:56:29.537Z,99853.78
2018-07-02T00:58:05.286Z,99861.83
2018-07-02T00:59:40.868Z,99858.73
2018-07-02T01:01:16.761Z,99859.59
2018-07-02T01:02:52.378Z,99856.20
2018-07-02T01:04:28.038Z,99852.82
2018-07-02T01:06:03.606Z,99849.83
2018-07-02T01:07:39.214Z,99855.08
2018-07-02T01:09:14.788Z,99849.75
2018-07-02T01:10:50.390Z,99846.27
2018-07-02T01:12:26.011Z,99843.84
2018-07-02T01:14:01.795Z,99839.31
2018-07-02T01:17:19.466Z,99840.48
2018-07-02T01:18:55.093Z,99842.91
2018-07-02T01:20:30.700Z,99838.78
2018-07-02T01:22:06.333Z,99834.69
2018-07-02T01:23:42.372Z,99836.73
2018-07-02T01:25:18.260Z,99838.72
2018-07-02T01:26:53.922Z,99833.95
2018-07-02T01:28:29.533Z,99831.14
2018-07-02T01:30:06.205Z,99825.54
2018-07-02T01:31:42.042Z,99827.56
2018-07-02T01:33:17.712Z,99829.92
2018-07-02T01:34:53.657Z,99826.29
2018-07-02T01:36:29.256Z,99824.66
2018-07-02T01:38:05.279Z,99821.19
2018-07-02T01:39:40.910Z,99822.97
2018-07-02T01:41:16.962Z,99822.04
2018-07-02T01:42:52.596Z,99823.66
2018-07-02T01:44:28.218Z,99822.78
2018-07-02T01:46:04.096Z,99825.17
2018-07-02T01:47:39.714Z,99823.16
2018-07-02T01:49:15.352Z,99824.67
2018-07-02T01:50:50.928Z,99828.50
2018-07-02T01:52:26.567Z,99822.78
2018-07-02T01:54:02.182Z,99816.91
2018-07-02T01:55:37.747Z,99818.80
2018-07-02T01:57:13.323Z,99815.70
2018-07-02T01:58:48.920Z,99820.42
2018-07-02T02:00:24.491Z,99815.71
2018-07-02T02:02:00.116Z,99813.58
2018-07-02T02:03:35.689Z,99816.36
2018-07-02T02:05:11.323Z,99813.31
2018-07-02T02:06:46.896Z,99816.31
2018-07-02T02:08:22.458Z,99816.31
2018-07-02T02:09:58.069Z,99821.10
2018-07-02T02:11:33.621Z,99813.58
2018-07-02T02:13:09.194Z,99806.55
2018-07-02T02:14:44.763Z,99818.28
2018-07-02T02:16:20.418Z,99814.84
2018-07-02T02:17:56.162Z,99823.75
2018-07-02T02:19:31.743Z,99817.30
2018-07-02T02:21:07.392Z,99821.53
2018-07-02T02:22:43.025Z,99822.73
2018-07-02T02:24:18.655Z,99820.77
2018-07-02T02:25:54.214Z,99819.92
2018-07-02T02:27:29.792Z,99823.39
2018-07-02T02:29:05.428Z,99818.34
2018-07-02T02:30:41.008Z,99818.61
2018-07-02T02:32:16.764Z,99807.84
2018-07-02T02:33:52.721Z,99820.25
2018-07-02T02:35:28.703Z,99823.06
2018-07-02T02:37:04.329Z,99823.70
2018-07-02T02:38:40.059Z,99825.31
2018-07-02T02:40:15.659Z,99823.63
2018-07-02T02:41:51.248Z,99823.63
2018-07-02T02:43:26.880Z,99828.69
2018-07-02T02:45:02.486Z,99828.51
2018-07-02T02:46:38.079Z,99831.98
2018-07-02T02:48:13.691Z,99834.88
2018-07-02T02:49:49.330Z,99833.94
2018-07-02T02:51:24.910Z,99846.50
2018-07-02T02:53:00.478Z,99848.84
2018-07-02T02:54:36.063Z,99843.02
2018-07-02T02:56:11.784Z,99846.96
2018-07-02T02:57:47.377Z,99845.36
2018-07-02T02:59:22.990Z,99840.20
2018-07-02T03:00:58.619Z,99840.13
2018-07-02T03:02:34.184Z,99839.63
2018-07-02T03:04:09.784Z,99838.61
2018-07-02T03:05:45.452Z,99840.39
2018-07-02T03:07:21.255Z,99839.30
2018-07-02T03:08:56.929Z,99839.19
2018-07-02T03:10:32.524Z,99837.48
2018-07-02T03:12:08.142Z,99850.44
2018-07-02T03:13:43.854Z,99842.19
2018-07-02T03:15:19.532Z,99846.11
2018-07-02T03:16:55.089Z,99845.19
2018-07-02T03:18:30.726Z,99843.02
2018-07-02T03:20:06.671Z,99845.37
2018-07-02T03:21:42.314Z,99849.40
2018-07-02T03:23:17.938Z,99847.16
2018-07-02T03:24:53.566Z,99843.30
2018-07-02T03:26:29.215Z,99838.92
2018-07-02T03:28:04.879Z,99845.94
2018-07-02T03:29:40.512Z,99842.47
2018-07-02T03:31:16.114Z,99833.84
2018-07-02T03:32:51.778Z,99829.55
2018-07-02T03:34:27.446Z,99827.22
2018-07-02T03:36:03.403Z,99826.44
2018-07-02T03:37:38.977Z,99821.67
2018-07-02T03:39:14.562Z,99818.50
2018-07-02T03:40:50.237Z,99824.41
2018-07-02T03:42:25.812Z,99827.02
2018-07-02T03:44:01.641Z,99822.59
2018-07-02T03:45:37.286Z,99823.35
2018-07-02T03:47:12.939Z,99829.78
2018-07-02T03:48:48.606Z,99830.05
2018-07-02T03:50:24.223Z,99824.28
2018-07-02T03:51:59.835Z,99833.55
2018-07-02T03:53:35.666Z,99831.22
2018-07-02T03:55:11.635Z,99835.64
2018-07-02T03:56:47.231Z,99845.75
2018-07-02T03:58:22.965Z,99837.50
2018-07-02T03:59:58.813Z,99836.34
2018-07-02T04:01:34.609Z,99836.89
2018-07-02T04:03:10.252Z,99830.52
2018-07-02T04:04:45.936Z,99829.70
2018-07-02T04:06:21.539Z,99831.38
2018-07-02T04:07:57.163Z,99826.67
2018-07-02T04:09:32.740Z,99822.63
2018-07-02T04:11:08.391Z,99827.28
2018-07-02T04:12:44.007Z,99825.13
2018-07-02T04:14:19.807Z,99819.30
2018-07-02T04:15:55.411Z,99818.91
2018-07-02T04:17:31.083Z,99816.46
2018-07-02T04:19:10.346Z,99812.58
2018-07-02T04:20:45.933Z,99809.25
2018-07-02T04:22:21.502Z,99806.51
2018-07-02T04:23:57.103Z,99805.08
2018-07-02T04:25:32.871Z,99806.54
2018-07-02T04:27:08.501Z,99811.05
2018-07-02T04:28:44.133Z,99810.22
2018-07-02T04:30:19.806Z,99808.89
2018-07-02T04:31:55.377Z,99809.02
2018-07-02T04:33:30.964Z,99807.52
2018-07-02T04:35:06.635Z,99802.94
2018-07-02T04:36:42.219Z,99808.66
2018-07-02T04:38:17.915Z,99806.94
2018-07-02T04:39:53.551Z,99809.11
2018-07-02T04:41:29.154Z,99812.56
2018-07-02T04:43:04.776Z,99810.23
2018-07-02T04:44:40.396Z,99802.27
2018-07-02T04:46:16.257Z,99799.34
2018-07-02T04:47:51.828Z,99802.60
2018-07-02T04:49:27.502Z,99805.38
2018-07-02T04:51:03.211Z,99802.45
2018-07-02T04:52:38.779Z,99809.50
2018-07-02T04:54:14.478Z,99813.55
2018-07-02T04:57:31.019Z,99811.20
2018-07-02T04:59:06.654Z,99796.60
2018-07-02T05:00:42.583Z,99792.23
2018-07-02T05:02:18.297Z,99794.39
2018-07-02T05:03:55.216Z,99794.79
2018-07-02T05:05:30.819Z,99794.05
2018-07-02T05:07:06.447Z,99797.49
2018-07-02T05:08:42.058Z,99805.96
2018-07-02T05:10:17.664Z,99808.45
2018-07-02T05:11:53.478Z,99795.83
2018-07-02T05:13:29.088Z,99807.88
2018-07-02T05:15:05.035Z,99801.00
2018-07-02T05:16:40.779Z,99803.52
2018-07-02T05:18:16.371Z,99803.53
2018-07-02T05:19:52.001Z,99804.86
2018-07-02T05:21:27.641Z,99810.06
2018-07-02T05:23:03.257Z,99809.24
2018-07-02T05:24:38.851Z,99819.52
2018-07-02T05:26:14.485Z,99814.73
2018-07-02T05:27:50.065Z,99812.82
2018-07-02T05:29:25.713Z,99816.98
2018-07-02T05:31:01.295Z,99817.64
2018-07-02T05:32:36.888Z,99813.99
2018-07-02T05:34:12.533Z,99819.00
2018-07-02T05:35:48.784Z,99819.79
2018-07-02T05:37:24.407Z,99823.27
2018-07-02T05:39:00.000Z,99819.58
2018-07-02T05:40:35.618Z,99817.80
2018-07-02T05:42:11.214Z,99820.93
2018-07-02T05:43:46.888Z,99831.19
2018-07-02T05:45:22.556Z,99821.98
2018-07-02T05:46:58.187Z,99823.88
2018-07-02T05:48:33.808Z,99822.53
2018-07-02T05:50:09.479Z,99826.20
2018-07-02T05:51:45.056Z,99780.82
2018-07-02T05:53:20.898Z,99825.05
2018-07-02T05:54:56.619Z,99820.00
2018-07-02T05:56:32.250Z,99831.66
2018-07-02T05:58:07.839Z,99821.92
2018-07-02T05:59:43.443Z,99823.72
2018-07-02T06:01:19.163Z,99823.88
2018-07-02T06:02:54.759Z,99826.52
2018-07-02T06:04:30.455Z,99820.75
2018-07-02T06:06:09.735Z,99815.94
2018-07-02T06:07:45.547Z,99826.28
2018-07-02T06:09:21.220Z,99821.23
2018-07-02T06:10:56.891Z,99827.35
2018-07-02T06:12:33.326Z,99836.94
2018-07-02T06:14:10.611Z,99830.31
2018-07-02T06:15:46.305Z,99827.92
2018-07-02T06:17:21.957Z,99830.33
2018-07-02T06:18:57.571Z,99826.37
2018-07-02T06:20:33.169Z,99827.53
2018-07-02T06:22:08.784Z,99825.11
2018-07-02T06:23:44.326Z,99832.07
2018-07-02T06:25:19.960Z,99828.52
2018-07-02T06:26:55.560Z,99827.57
2018-07-02T06:28:31.164Z,99824.99
2018-07-02T06:30:07.236Z,99820.66
2018-07-02T06:31:43.019Z,99829.44
2018-07-02T06:33:19.447Z,99820.68
2018-07-02T06:34:55.696Z,99812.61
2018-07-02T06:36:31.596Z,99818.58
2018-07-02T06:38:07.592Z,99813.34
2018-07-02T06:39:44.529Z,99813.20
2018-07-02T06:41:21.180Z,99811.37
2018-07-02T06:42:57.018Z,99823.73
2018-07-02T06:44:33.727Z,99819.39
2018-07-02T06:46:09.372Z,99813.37
2018-07-02T06:47:45.072Z,99816.20
2018-07-02T06:49:20.632Z,99813.71
2018-07-02T06:50:56.190Z,99817.80
2018-07-02T06:52:31.767Z,99819.30
2018-07-02T06:54:07.354Z,99820.19
2018-07-02T06:55:42.953Z,99822.64
2018-07-02T06:57:20.361Z,99819.37
2018-07-02T06:58:55.999Z,99824.41
2018-07-02T07:00:31.681Z,99825.10
2018-07-02T07:02:07.371Z,99823.56
2018-07-02T07:03:46.127Z,99820.23
2018-07-02T07:05:21.876Z,99822.53
2018-07-02T07:06:57.794Z,99826.88
2018-07-02T07:08:55.409Z,99817.29
2018-07-02T07:10:37.237Z,99820.42
2018-07-02T07:12:13.897Z,99822.72
2018-07-02T07:13:49.697Z,99818.63
2018-07-02T07:15:25.381Z,99815.56
2018-07-02T07:17:01.207Z,99824.78
2018-07-02T07:18:39.325Z,99816.69
2018-07-02T07:20:15.885Z,99814.67
2018-07-02T07:22:02.578Z,99809.38
2018-07-02T07:23:39.272Z,99818.47
2018-07-02T07:25:15.914Z,99814.77
2018-07-02T07:26:51.483Z,99810.99
2018-07-02T07:28:27.920Z,99814.01
2018-07-02T07:30:17.367Z,99815.61
2018-07-02T07:31:59.379Z,99817.41
2018-07-02T07:33:35.760Z,99812.84
2018-07-02T07:35:11.632Z,99811.52
2018-07-02T07:36:48.306Z,99811.22
2018-07-02T07:38:24.023Z,99808.89
2018-07-02T07:39:59.930Z,99805.27
2018-07-02T07:41:35.970Z,99801.06
2018-07-02T07:43:11.880Z,99810.25
2018-07-02T07:44:47.645Z,99802.23
2018-07-02T07:46:23.390Z,99813.74
2018-07-02T07:48:06.010Z,99809.00
2018-07-02T07:49:41.625Z,99812.27
2018-07-02T07:51:17.549Z,99802.92
2018-07-02T07:52:53.700Z,99814.88
2018-07-02T07:54:29.745Z,99808.40
2018-07-02T07:56:05.376Z,99802.92
2018-07-02T07:57:41.119Z,99806.05
2018-07-02T07:59:16.791Z,99806.05
2018-07-02T08:00:53.068Z,99802.61
2018-07-02T08:02:28.970Z,99805.55
2018-07-02T08:04:04.738Z,99806.79
2018-07-02T08:05:41.737Z,99804.75
2018-07-02T08:07:17.455Z,99804.75
2018-07-02T08:09:06.364Z,99807.42
2018-07-02T08:10:42.312Z,99804.75
2018-07-02T08:12:30.569Z,99803.44
2018-07-02T08:14:07.062Z,99805.73
2018-07-02T08:15:42.962Z,99800.22
2018-07-02T08:17:29.498Z,99799.47
2018-07-02T08:19:05.505Z,99797.66
2018-07-02T08:20:41.377Z,99793.77
2018-07-02T08:22:17.683Z,99802.30
2018-07-02T08:23:55.022Z,99794.77
2018-07-02T08:25:31.521Z,99792.80
2018-07-02T08:27:08.053Z,99786.41
2018-07-02T08:28:44.221Z,99797.78
2018-07-02T08:30:19.810Z,99798.28
2018-07-02T08:31:56.240Z,99795.70
2018-07-02T08:33:32.835Z,99805.85
2018-07-02T08:35:08.785Z,99800.27
2018-07-02T08:36:45.654Z,99795.02
2018-07-02T08:38:22.023Z,99801.56
2018-07-02T08:39:58.174Z,99805.61
2018-07-02T08:41:34.212Z,99799.67
2018-07-02T08:43:10.682Z,99802.22
2018-07-02T08:44:46.315Z,99792.83
2018-07-02T08:46:21.928Z,99797.25
2018-07-02T08:47:57.562Z,99796.83
2018-07-02T08:49:33.211Z,99799.34
2018-07-02T08:51:09.552Z,99798.95
2018-07-02T08:52:46.559Z,99795.22
2018-07-02T08:54:29.564Z,99792.79
2018-07-02T08:56:05.614Z,99790.99
2018-07-02T08:57:41.463Z,99794.38
2018-07-02T08:59:17.273Z,99801.43
2018-07-02T09:00:57.558Z,99794.28
2018-07-02T09:02:33.427Z,99800.96
2018-07-02T09:04:09.090Z,99797.60
2018-07-02T09:05:45.739Z,99790.95
2018-07-02T09:07:21.553Z,99789.56
2018-07-02T09:08:57.736Z,99787.61
2018-07-02T09:10:34.030Z,99786.23
2018-07-02T09:12:09.954Z,99786.11
2018-07-02T09:13:46.292Z,99789.14
2018-07-02T09:15:22.090Z,99800.28
2018-07-02T09:16:58.058Z,99793.44
2018-07-02T09:18:34.214Z,99794.08
2018-07-02T09:20:09.874Z,99789.66
2018-07-02T09:21:45.637Z,99790.50
2018-07-02T09:23:21.280Z,99782.14
2018-07-02T09:24:56.955Z,99783.72
2018-07-02T09:26:32.604Z,99781.25
2018-07-02T09:28:08.215Z,99781.73
2018-07-02T09:29:44.201Z,99773.95
2018-07-02T09:31:20.086Z,99776.24
2018-07-02T09:32:58.454Z,99740.97
2018-07-02T09:34:35.827Z,99768.30
2018-07-02T09:36:12.005Z,99767.00
2018-07-02T09:37:48.533Z,99773.29
2018-07-02T09:39:25.350Z,99772.57
2018-07-02T09:41:07.012Z,99770.08
2018-07-02T09:42:43.104Z,99758.42
2018-07-02T09:44:20.930Z,99769.02
2018-07-02T09:45:56.517Z,99776.38
2018-07-02T09:47:32.338Z,99776.56
2018-07-02T09:49:07.981Z,99772.33
2018-07-02T09:50:44.969Z,99774.74
2018-07-02T09:54:03.212Z,99779.59
2018-07-02T09:55:46.448Z,99782.88
2018-07-02T09:57:24.360Z,99775.91
2018-07-02T10:01:14.538Z,99768.62
2018-07-02T10:02:51.896Z,99790.18
2018-07-02T10:04:28.498Z,99772.27
2018-07-02T10:06:05.030Z,99768.50
2018-07-02T10:07:40.904Z,99788.88
2018-07-02T10:09:16.927Z,99772.53
2018-07-02T10:10:54.432Z,99795.31
2018-07-02T10:12:30.563Z,99787.16
2018-07-02T10:14:07.249Z,99781.66
2018-07-02T10:15:44.939Z,99773.16
2018-07-02T10:17:21.031Z,99781.70
2018-07-02T10:18:58.032Z,99778.25
2018-07-02T10:20:34.670Z,99771.16
2018-07-02T10:22:11.277Z,99767.20
2018-07-02T10:23:52.391Z,99766.63
2018-07-02T10:25:35.781Z,99765.96
2018-07-02T10:27:11.411Z,99761.66
2018-07-02T10:28:47.138Z,99766.33
2018-07-02T10:30:22.797Z,99757.30
2018-07-02T10:31:58.423Z,99760.76
2018-07-02T10:33:40.926Z,99771.28
2018-07-02T10:35:16.591Z,99762.23
2018-07-02T10:36:52.229Z,99768.89
2018-07-02T10:38:27.989Z,99769.56
2018-07-02T10:40:03.635Z,99764.13
2018-07-02T10:41:39.197Z,99773.16
2018-07-02T10:43:14.925Z,99768.58
2018-07-02T10:44:50.567Z,99767.20
2018-07-02T10:46:26.234Z,99757.16
2018-07-02T10:48:02.010Z,99760.27
2018-07-02T10:49:37.645Z,99755.82
2018-07-02T10:51:13.284Z,99774.34
2018-07-02T10:52:49.005Z,99760.31
2018-07-02T10:54:24.599Z,99756.66
2018-07-02T10:56:00.268Z,99755.36
2018-07-02T10:57:35.947Z,99761.02
2018-07-02T10:59:11.759Z,99755.54
2018-07-02T11:00:47.377Z,99757.36
2018-07-02T11:02:23.182Z,99749.05
2018-07-02T11:03:58.830Z,99751.36
2018-07-02T11:05:34.517Z,99749.54
2018-07-02T11:07:10.170Z,99749.05
2018-07-02T11:08:45.966Z,99742.70
2018-07-02T11:10:22.394Z,99734.05
2018-07-02T11:11:58.029Z,99724.23
2018-07-02T11:13:33.732Z,99729.39
2018-07-02T11:15:09.465Z,99735.41
2018-07-02T11:16:47.694Z,99731.41
2018-07-02T11:18:23.314Z,99728.89
2018-07-02T11:19:58.997Z,99734.76
2018-07-02T11:21:37.836Z,99740.75
2018-07-02T11:23:13.659Z,99738.74
2018-07-02T11:24:49.568Z,99731.92
2018-07-02T11:26:25.283Z,99730.77
2018-07-02T11:28:20.201Z,99719.73
2018-07-02T11:29:56.778Z,99719.73
2018-07-02T11:31:32.887Z,99716.72
2018-07-02T11:33:09.332Z,99716.93
2018-07-02T11:34:46.171Z,99717.09
2018-07-02T11:36:21.926Z,99715.47
2018-07-02T11:37:57.570Z,99715.41
2018-07-02T11:39:33.197Z,99709.41
2018-07-02T11:41:08.853Z,99713.91
2018-07-02T11:42:44.482Z,99702.41
2018-07-02T11:44:21.249Z,99703.10
2018-07-02T11:45:56.877Z,99706.78
2018-07-02T11:47:32.636Z,99701.28
2018-07-02T11:49:08.517Z,99693.43
2018-07-02T11:51:03.198Z,99703.28
2018-07-02T11:52:38.827Z,99692.95
2018-07-02T11:54:15.025Z,99691.10
2018-07-02T11:55:50.689Z,99690.45
2018-07-02T11:57:26.252Z,99693.61
2018-07-02T11:59:01.875Z,99699.11
2018-07-02T12:00:37.550Z,99691.59
2018-07-02T12:02:13.261Z,99695.42
2018-07-02T12:04:00.890Z,99701.95
2018-07-02T12:05:36.497Z,99702.27
2018-07-02T12:07:12.070Z,99698.42
2018-07-02T12:08:47.805Z,99691.58
2018-07-02T12:10:23.860Z,99689.75
2018-07-02T12:11:59.592Z,99690.77
2018-07-02T12:13:35.876Z,99691.25
2018-07-02T12:15:11.749Z,99686.39
2018-07-02T12:16:47.708Z,99689.20
2018-07-02T12:18:24.748Z,99691.06
2018-07-02T12:20:01.381Z,99683.39
2018-07-02T12:21:37.213Z,99688.72
2018-07-02T12:23:12.989Z,99685.03
2018-07-02T12:24:48.656Z,99685.19
2018-07-02T12:26:24.888Z,99691.02
2018-07-02T12:28:01.089Z,99689.33
2018-07-02T12:29:36.854Z,99694.36
2018-07-02T12:31:12.555Z,99688.33
2018-07-02T12:32:48.857Z,99686.34
2018-07-02T12:34:24.813Z,99684.66
2018-07-02T12:36:00.535Z,99689.66
2018-07-02T12:37:36.283Z,99687.34
2018-07-02T12:39:16.123Z,99686.01
2018-07-02T12:40:55.782Z,99687.00
2018-07-02T12:42:31.827Z,99691.50
2018-07-02T12:44:08.859Z,99680.33
2018-07-02T12:45:46.142Z,99681.52
2018-07-02T12:47:21.762Z,99685.52
2018-07-02T12:49:00.094Z,99676.31
2018-07-02T12:50:37.707Z,99678.34
2018-07-02T12:52:14.129Z,99679.65
2018-07-02T12:53:50.135Z,99685.44
2018-07-02T12:55:27.849Z,99677.95
2018-07-02T12:57:04.792Z,99679.28
2018-07-02T12:58:40.494Z,99681.39
2018-07-02T13:00:17.944Z,99689.91
2018-07-02T13:01:54.548Z,99678.47
2018-07-02T13:03:30.777Z,99678.47
2018-07-02T13:05:06.883Z,99671.95
2018-07-02T13:06:43.463Z,99672.29
2018-07-02T13:08:21.413Z,99670.08
2018-07-02T13:10:04.939Z,99666.39
2018-07-02T13:11:42.229Z,99674.84
2018-07-02T13:13:19.130Z,99671.55
2018-07-02T13:15:00.350Z,99670.48
2018-07-02T13:16:38.650Z,99658.64
2018-07-02T13:18:14.352Z,99654.14
2018-07-02T13:19:51.817Z,99655.82
2018-07-02T13:21:28.390Z,99656.50
2018-07-02T13:23:04.927Z,99659.48
2018-07-02T13:24:40.515Z,99662.53
2018-07-02T13:26:35.045Z,99651.81
2018-07-02T13:28:32.569Z,99652.00
2018-07-02T13:30:08.762Z,99647.08
2018-07-02T13:31:47.262Z,99646.39
2018-07-02T13:33:23.512Z,99643.53
2018-07-02T13:35:08.166Z,99649.33
2018-07-02T13:36:45.897Z,99622.67
2018-07-02T13:38:22.187Z,99652.84
2018-07-02T13:39:58.710Z,99653.59
2018-07-02T13:41:34.974Z,99648.75
2018-07-02T13:43:11.425Z,99653.56
2018-07-02T13:44:47.282Z,99644.88
2018-07-02T13:46:24.155Z,99638.25
2018-07-02T13:48:00.876Z,99640.77
2018-07-02T13:49:37.694Z,99643.90
2018-07-02T13:51:14.508Z,99651.27
2018-07-02T13:52:50.660Z,99641.38
2018-07-02T13:54:26.984Z,99649.23
2018-07-02T13:56:03.010Z,99638.09
2018-07-02T13:57:38.832Z,99636.45
2018-07-02T13:59:15.950Z,99642.11
2018-07-02T14:00:52.350Z,99643.03
2018-07-02T14:02:28.100Z,99643.48
2018-07-02T14:04:08.744Z,99638.44
2018-07-02T14:05:45.435Z,99642.59
2018-07-02T14:07:34.255Z,99637.98
2018-07-02T14:10:47.655Z,99639.12
2018-07-02T14:12:27.437Z,99639.77
2018-07-02T14:14:03.342Z,99634.91
2018-07-02T14:15:38.976Z,99630.05
2018-07-02T14:17:20.054Z,99633.52
2018-07-02T14:19:04.293Z,99656.49
2018-07-02T14:20:45.040Z,99645.52
2018-07-02T14:22:21.944Z,99627.37
2018-07-02T14:23:59.401Z,99625.14
2018-07-02T14:25:35.310Z,99616.48
2018-07-02T14:27:11.853Z,99623.11
2018-07-02T14:28:48.277Z,99616.84
2018-07-02T14:30:24.238Z,99635.74
2018-07-02T14:32:01.236Z,99625.57
2018-07-02T14:33:38.601Z,99625.38
2018-07-02T14:35:19.981Z,99617.49
2018-07-02T14:36:55.585Z,99616.11
2018-07-02T14:38:31.187Z,99623.97
2018-07-02T14:40:06.894Z,99620.67
2018-07-02T14:41:42.516Z,99619.92
2018-07-02T14:43:18.323Z,99618.30
2018-07-02T14:44:54.084Z,99619.37
2018-07-02T14:46:30.532Z,99618.77
2018-07-02T14:48:06.601Z,99609.80
2018-07-02T14:49:42.234Z,99616.80
2018-07-02T14:51:18.394Z,99616.92
2018-07-02T14:53:12.668Z,99619.41
2018-07-02T14:54:48.271Z,99614.46
2018-07-02T14:56:29.792Z,99614.96
2018-07-02T14:58:05.755Z,99616.16
2018-07-02T14:59:42.094Z,99610.47
2018-07-02T15:01:17.826Z,99615.82
2018-07-02T15:02:53.618Z,99611.66
2018-07-02T15:04:41.405Z,99615.95
2018-07-02T15:06:17.091Z,99618.42
2018-07-02T15:07:53.153Z,99618.86
2018-07-02T15:09:28.843Z,99619.77
2018-07-02T15:11:04.450Z,99620.91
2018-07-02T15:12:40.075Z,99611.25
2018-07-02T15:14:15.690Z,99613.93
2018-07-02T15:15:51.370Z,99616.16
2018-07-02T15:17:27.053Z,99611.04
2018-07-02T15:19:02.815Z,99612.72
2018-07-02T15:20:38.464Z,99610.33
2018-07-02T15:22:14.430Z,99611.95
2018-07-02T15:23:50.096Z,99610.25
2018-07-02T15:25:32.215Z,99605.40
2018-07-02T15:27:09.434Z,99605.54
2018-07-02T15:28:45.615Z,99611.41
2018-07-02T15:30:21.459Z,99612.19
2018-07-02T15:31:58.024Z,99611.83
2018-07-02T15:33:34.663Z,99614.05
2018-07-02T15:35:11.263Z,99608.58
2018-07-02T15:36:49.227Z,99611.80
2018-07-02T15:38:25.012Z,99605.45
2018-07-02T15:40:00.783Z,99613.43
2018-07-02T15:41:36.605Z,99614.77
2018-07-02T15:43:12.453Z,99609.63
2018-07-02T15:44:48.751Z,99613.98
2018-07-02T15:46:26.800Z,99611.61
2018-07-02T15:48:03.350Z,99612.02
2018-07-02T15:49:39.274Z,99618.91
2018-07-02T15:51:16.422Z,99611.66
2018-07-02T15:52:52.815Z,99608.41
2018-07-02T15:54:28.617Z,99610.81
2018-07-02T15:56:04.688Z,99618.89
2018-07-02T15:57:40.646Z,99612.05
2018-07-02T15:59:16.905Z,99612.83
2018-07-02T16:00:52.744Z,99603.28
2018-07-02T16:02:28.476Z,99605.03
2018-07-02T16:04:16.250Z,99611.16
2018-07-02T16:05:51.911Z,99609.23
2018-07-02T16:07:27.617Z,99604.07
2018-07-02T16:09:09.780Z,99601.02
2018-07-02T16:10:53.032Z,99600.59
2018-07-02T16:12:35.789Z,99609.33
2018-07-02T16:14:11.862Z,99606.28
2018-07-02T16:15:47.977Z,99609.19
2018-07-02T16:17:24.491Z,99601.91
2018-07-02T16:19:01.065Z,99604.62
2018-07-02T16:20:43.833Z,99599.30
2018-07-02T16:22:36.678Z,99598.38
2018-07-02T16:24:17.710Z,99594.91
2018-07-02T16:25:59.802Z,99588.02
2018-07-02T16:27:56.474Z,99585.16
2018-07-02T16:29:40.321Z,99588.39
2018-07-02T16:31:21.570Z,99586.92
2018-07-02T16:33:02.891Z,99599.06
2018-07-02T16:34:44.061Z,99590.34
2018-07-02T16:36:20.171Z,99595.23
2018-07-02T16:37:55.964Z,99588.33
2018-07-02T16:39:32.654Z,99593.08
2018-07-02T16:41:08.387Z,99594.21
2018-07-02T16:42:44.136Z,99602.22
2018-07-02T16:46:28.811Z,99594.14
2018-07-02T16:48:04.981Z,99594.27
2018-07-02T16:49:41.292Z,99598.49
2018-07-02T16:51:17.057Z,99588.52
2018-07-02T16:52:54.731Z,99595.18
2018-07-02T16:54:31.436Z,99592.49
2018-07-02T16:58:14.317Z,99595.56
2018-07-02T16:59:51.058Z,99598.06
2018-07-02T17:01:39.615Z,99597.10
2018-07-02T17:03:16.321Z,99595.38
2018-07-02T17:04:53.442Z,99594.80
2018-07-02T17:06:29.227Z,99598.29
2018-07-02T17:08:06.019Z,99591.36
2018-07-02T17:09:43.075Z,99600.73
2018-07-02T17:11:31.846Z,99599.74
2018-07-02T17:13:07.568Z,99601.72
2018-07-02T17:14:43.336Z,99603.31
2018-07-02T17:16:19.197Z,99600.70
2018-07-02T17:17:56.796Z,99596.39
2018-07-02T17:19:32.577Z,99602.02
2018-07-02T17:21:08.393Z,99599.28
2018-07-02T17:22:48.196Z,99599.05
2018-07-02T17:24:23.934Z,99606.94
2018-07-02T17:25:59.692Z,99605.30
2018-07-02T17:27:36.331Z,99604.52
2018-07-02T17:29:11.953Z,99608.84
2018-07-02T17:30:48.707Z,99610.33
2018-07-02T17:32:32.437Z,99608.02
2018-07-02T17:34:10.781Z,99610.74
2018-07-02T17:35:48.042Z,99615.45
2018-07-02T17:37:30.832Z,99620.13
2018-07-02T17:39:10.235Z,99617.12
2018-07-02T17:40:56.398Z,99615.45
2018-07-02T17:42:32.574Z,99616.09
2018-07-02T17:44:10.896Z,99613.77
2018-07-02T17:46:10.008Z,99614.48
2018-07-02T17:47:48.350Z,99611.73
2018-07-02T17:49:24.900Z,99612.94
2018-07-02T17:51:00.957Z,99619.96
2018-07-02T17:52:44.468Z,99613.81
2018-07-02T17:54:30.082Z,99613.63
2018-07-02T17:56:05.996Z,99614.62
2018-07-02T17:59:48.573Z,99612.67
2018-07-02T18:01:24.513Z,99615.69
2018-07-02T18:03:00.135Z,99606.48
2018-07-02T18:04:48.941Z,99610.34
2018-07-02T18:06:24.782Z,99612.53
2018-07-02T18:08:00.428Z,99620.55
2018-07-02T18:09:49.286Z,99616.72
2018-07-02T18:11:39.026Z,99613.82
2018-07-02T18:13:15.853Z,99617.56
2018-07-02T18:14:51.900Z,99618.48
2018-07-02T18:16:27.520Z,99610.95
2018-07-02T18:18:03.327Z,99617.33
2018-07-02T18:19:44.375Z,99620.03
2018-07-02T18:21:20.189Z,99626.05
2018-07-02T18:22:55.924Z,99625.24
2018-07-02T18:24:47.688Z,99619.74
2018-07-02T18:26:23.542Z,99624.48
2018-07-02T18:28:12.248Z,99622.01
2018-07-02T18:29:48.008Z,99624.05
2018-07-02T18:31:23.666Z,99625.20
2018-07-02T18:32:59.394Z,99619.08
2018-07-02T18:38:50.819Z,99633.05
2018-07-02T18:40:26.517Z,99630.06
2018-07-02T18:42:02.462Z,99631.73
2018-07-02T18:43:42.083Z,99632.38
2018-07-02T18:45:17.923Z,99641.89
2018-07-02T18:47:06.318Z,99639.72
2018-07-02T18:48:42.047Z,99640.69
2018-07-02T18:50:17.763Z,99640.02
2018-07-02T18:52:04.866Z,99636.35
2018-07-02T18:53:41.327Z,99634.50
2018-07-02T18:55:20.329Z,99635.74
2018-07-02T18:57:03.928Z,99635.39
2018-07-02T18:58:40.288Z,99626.39
2018-07-02T19:00:17.405Z,99637.36
2018-07-02T19:01:53.273Z,99632.03
2018-07-02T19:03:28.990Z,99630.03
2018-07-02T19:05:06.402Z,99632.03
2018-07-02T19:06:45.515Z,99626.80
2018-07-02T19:08:22.859Z,99634.25
2018-07-02T19:10:04.967Z,99636.38
2018-07-02T19:11:42.958Z,99643.02
2018-07-02T19:13:19.046Z,99640.63
2018-07-02T19:14:56.824Z,99649.92
2018-07-02T19:16:33.395Z,99648.02
2018-07-02T19:18:09.251Z,99646.63